Terminal Aerodrome Forecast
Issued by NWS

Home | Current Version | Previous Version | Text Only | Print | Product List | Glossary On
Versions: 1 2 3 4 5 6 7 8 9 10 11 12 13 14 15 16 17 18 19 20 21 22 23 24 25 26 27 28 29 30
747
FTUS43 KDLH 251224 AAA
TAFBRD
TAF AMD
KBRD 251224Z 2512/2612 20010KT P6SM -RA BKN012 OVC090
     FM251400 22010G16KT P6SM VCSH BKN040
     FM251700 24012G18KT P6SM SCT040
     FM252000 27014G24KT P6SM VCSH BKN025
     FM260200 29016G26KT 4SM -SHRA BR SCT008 BKN015
     FM260900 29015G24KT P6SM SCT050=

USA.gov is the U.S. government's official web portal to all federal, state and local government web resources and services.